Time;durP1;ratioP1;P1;durP2;ratioP2;P2;SDS_P1;SDS_P2;PMS_P1;PMS_P2;Temp;Humidity;BMP_temperature;BMP_pressure;BME280_temperature;BME280_humidity;BME280_pressure;Samples;Min_cycle;Max_cycle;Signal;HPM_P1;HPM_P2
2024/03/22 06:01:22;;;;;;;15.80;10.10;;;8.40;92.50;;;;;;4495803;23;20142;-79
2024/03/22 06:03:23;;;;;;;14.10;10.02;;;8.50;92.80;;;;;;4120433;28;20480;-81
2024/03/22 06:05:25;;;;;;;15.52;10.15;;;8.50;93.00;;;;;;4118315;28;20106;-81
2024/03/22 06:07:26;;;;;;;17.08;9.80;;;8.60;93.00;;;;;;4117825;28;20547;-80
2024/03/22 06:09:36;;;;;;;15.18;9.90;;;8.60;92.90;;;;;;4117701;28;20109;-80
2024/03/22 06:11:38;;;;;;;14.82;9.25;;;8.60;92.80;;;;;;4118431;28;20054;-79
2024/03/22 06:13:40;;;;;;;19.60;10.07;;;8.70;92.80;;;;;;4119104;28;20456;-81
2024/03/22 06:15:45;;;;;;;14.98;9.98;;;8.70;92.80;;;;;;4119543;28;20055;-80
2024/03/22 06:17:48;;;;;;;16.25;9.90;;;8.70;92.90;;;;;;4119751;28;20089;-80
2024/03/22 06:19:49;;;;;;;17.10;10.30;;;8.70;93.00;;;;;;4117997;28;20046;-80
2024/03/22 06:21:51;;;;;;;16.13;9.52;;;8.80;93.00;;;;;;4118224;28;20444;-82
2024/03/22 06:23:52;;;;;;;16.45;9.65;;;8.80;93.10;;;;;;4119785;28;20055;-80
2024/03/22 06:25:55;;;;;;;14.77;10.02;;;8.80;93.20;;;;;;4120405;28;20047;-80
2024/03/22 06:27:56;;;;;;;18.45;9.73;;;8.80;93.20;;;;;;4119715;28;20142;-81
2024/03/22 06:29:58;;;;;;;15.82;9.90;;;8.80;93.20;;;;;;4117220;28;20492;-82
2024/03/22 06:31:59;;;;;;;15.70;10.05;;;8.80;93.40;;;;;;4117133;28;20054;-79
2024/03/22 06:34:02;;;;;;;16.70;10.18;;;8.80;93.40;;;;;;4116812;28;20381;-81
2024/03/22 06:36:04;;;;;;;14.73;9.75;;;8.80;93.30;;;;;;4117476;28;20086;-80
2024/03/22 06:38:06;;;;;;;18.10;10.27;;;8.90;93.30;;;;;;4117431;28;20043;-80
2024/03/22 06:40:09;;;;;;;13.18;9.30;;;8.90;93.30;;;;;;4117351;28;20047;-81
2024/03/22 06:42:11;;;;;;;20.30;10.93;;;8.90;93.30;;;;;;4117252;28;20047;-79
2024/03/22 06:44:13;;;;;;;19.10;10.93;;;9.00;93.40;;;;;;4117067;28;20394;-80
2024/03/22 06:46:15;;;;;;;15.90;10.73;;;9.00;93.40;;;;;;4117032;28;20143;-82
2024/03/22 06:48:16;;;;;;;19.80;10.60;;;9.10;93.30;;;;;;4116652;28;20500;-80
2024/03/22 06:50:23;;;;;;;18.67;10.55;;;9.10;93.20;;;;;;4116899;28;20097;-81
2024/03/22 06:52:24;;;;;;;17.17;10.02;;;9.20;93.20;;;;;;4116877;28;20105;-80
2024/03/22 06:54:26;;;;;;;18.60;11.13;;;9.20;93.10;;;;;;4116809;28;20050;-80
2024/03/22 06:56:27;;;;;;;17.13;10.77;;;9.20;93.20;;;;;;4116836;28;20126;-79
2024/03/22 06:58:29;;;;;;;17.27;11.13;;;9.30;93.20;;;;;;4116986;28;20082;-80
2024/03/22 07:00:30;;;;;;;15.93;10.65;;;9.30;93.20;;;;;;4116803;28;20043;-82
2024/03/22 07:02:32;;;;;;;15.55;10.57;;;9.40;93.10;;;;;;4116628;28;20055;-80
2024/03/22 07:04:33;;;;;;;17.83;11.05;;;9.40;93.00;;;;;;4117730;28;20055;-81
2024/03/22 07:06:36;;;;;;;15.60;10.25;;;9.50;92.90;;;;;;4117427;28;20448;-81
2024/03/22 07:08:37;;;;;;;17.35;10.35;;;9.50;92.90;;;;;;4116724;28;20051;-80
2024/03/22 07:10:40;;;;;;;15.70;9.98;;;9.50;93.00;;;;;;4117800;28;20389;-80
2024/03/22 07:12:41;;;;;;;15.77;10.30;;;9.60;93.10;;;;;;4121011;28;20085;-79
2024/03/22 07:14:43;;;;;;;14.75;9.65;;;9.60;93.00;;;;;;4120347;28;20054;-79
2024/03/22 07:16:44;;;;;;;16.17;10.38;;;9.70;92.90;;;;;;4119350;28;20054;-80
2024/03/22 07:18:48;;;;;;;17.13;10.48;;;9.80;92.90;;;;;;4120185;28;20069;-79
2024/03/22 07:20:49;;;;;;;17.30;10.85;;;9.80;92.90;;;;;;4119114;28;20111;-79
2024/03/22 07:22:51;;;;;;;16.80;9.63;;;9.90;92.90;;;;;;4120783;28;20043;-79
2024/03/22 07:24:55;;;;;;;15.32;10.45;;;9.90;92.80;;;;;;4121170;28;20061;-78
2024/03/22 07:26:55;;;;;;;17.33;10.27;;;9.90;93.00;;;;;;4120833;28;20051;-78
2024/03/22 07:28:57;;;;;;;15.50;9.75;;;10.00;93.00;;;;;;4123250;28;20050;-79
2024/03/22 07:30:58;;;;;;;15.80;9.45;;;10.00;93.00;;;;;;4121628;28;20043;-79
2024/03/22 07:33:00;;;;;;;15.40;9.73;;;10.00;93.10;;;;;;4123253;28;20085;-80
2024/03/22 07:35:01;;;;;;;16.17;9.70;;;10.10;93.10;;;;;;4120148;28;20451;-79
2024/03/22 07:37:04;;;;;;;14.70;9.77;;;10.10;93.00;;;;;;4120621;28;20090;-80
2024/03/22 07:39:07;;;;;;;16.58;9.98;;;10.10;93.00;;;;;;4118129;28;20042;-79
2024/03/22 07:41:09;;;;;;;15.73;9.32;;;10.10;92.90;;;;;;4118879;28;20043;-78
2024/03/22 07:43:10;;;;;;;15.05;9.02;;;10.20;93.10;;;;;;4119940;28;20047;-78
2024/03/22 07:45:12;;;;;;;15.23;9.60;;;10.20;92.70;;;;;;4103769;29;20535;-78
2024/03/22 07:47:13;;;;;;;14.40;9.00;;;10.20;92.90;;;;;;4103241;29;20048;-78
2024/03/22 07:49:14;;;;;;;15.07;8.90;;;10.30;92.80;;;;;;4103261;29;20412;-80
2024/03/22 07:51:15;;;;;;;15.80;9.30;;;10.30;92.40;;;;;;4105114;29;20122;-79
2024/03/22 07:53:17;;;;;;;12.30;8.52;;;10.40;92.50;;;;;;4103801;29;20086;-78
2024/03/22 07:55:19;;;;;;;15.45;8.85;;;10.40;92.60;;;;;;4103285;29;20110;-82
2024/03/22 07:57:22;;;;;;;13.70;8.57;;;10.40;92.00;;;;;;4104428;29;20393;-82
2024/03/22 07:59:23;;;;;;;15.50;8.60;;;10.50;91.80;;;;;;4105354;29;20334;-78
2024/03/22 08:01:24;;;;;;;12.57;7.95;;;10.60;91.70;;;;;;4104055;29;20052;-79
2024/03/22 08:03:26;;;;;;;13.85;9.00;;;10.70;91.80;;;;;;4103830;29;20485;-82
2024/03/22 08:05:27;;;;;;;12.13;7.72;;;10.70;91.60;;;;;;4110089;28;20054;-81
2024/03/22 08:07:29;;;;;;;12.32;7.78;;;10.70;91.50;;;;;;4121806;28;20492;-78
2024/03/22 08:09:30;;;;;;;14.68;8.07;;;10.80;91.50;;;;;;4120737;28;20078;-83
2024/03/22 08:11:33;;;;;;;14.38;7.90;;;10.90;91.40;;;;;;4117661;28;20437;-78
2024/03/22 08:13:34;;;;;;;14.07;8.55;;;10.90;91.30;;;;;;4118633;28;20141;-77
2024/03/22 08:15:36;;;;;;;14.43;8.07;;;11.00;91.20;;;;;;4118791;28;20355;-80
2024/03/22 08:17:37;;;;;;;14.00;8.20;;;11.00;90.90;;;;;;4099887;29;20397;-78
2024/03/22 08:19:39;;;;;;;16.88;8.88;;;11.10;90.70;;;;;;4118185;28;20053;-80
2024/03/22 08:21:40;;;;;;;11.82;8.65;;;11.10;90.70;;;;;;4118014;28;20062;-81
2024/03/22 08:23:42;;;;;;;15.38;9.40;;;11.20;90.50;;;;;;4119830;28;20562;-78
2024/03/22 08:25:43;;;;;;;17.08;9.13;;;11.20;90.30;;;;;;4121575;28;20451;-78
2024/03/22 08:27:46;;;;;;;13.35;9.23;;;11.30;90.30;;;;;;4120224;28;20050;-80
2024/03/22 08:29:47;;;;;;;12.77;8.75;;;11.30;90.00;;;;;;4119642;28;20105;-80
2024/03/22 08:31:49;;;;;;;14.15;8.80;;;11.40;90.20;;;;;;4123351;28;20047;-82
2024/03/22 08:33:49;;;;;;;14.35;8.20;;;11.40;90.40;;;;;;4126047;28;20043;-81
2024/03/22 08:35:51;;;;;;;12.82;8.60;;;11.50;90.40;;;;;;4128482;28;20046;-79
2024/03/22 08:37:53;;;;;;;14.88;8.57;;;11.60;89.30;;;;;;4127817;28;20058;-78
2024/03/22 08:39:55;;;;;;;18.38;9.27;;;11.70;89.90;;;;;;4125397;28;20047;-80
2024/03/22 08:41:55;;;;;;;15.48;9.13;;;11.70;89.80;;;;;;4122249;28;20047;-78
2024/03/22 08:43:59;;;;;;;16.45;9.18;;;11.80;89.30;;;;;;4125329;28;20112;-81
2024/03/22 08:46:00;;;;;;;12.68;8.82;;;11.80;89.30;;;;;;4124751;28;20404;-79
2024/03/22 08:48:02;;;;;;;14.13;8.88;;;11.90;89.40;;;;;;4122135;28;20050;-81
2024/03/22 08:50:04;;;;;;;14.68;8.98;;;12.00;88.60;;;;;;4121482;28;20054;-80
2024/03/22 08:52:06;;;;;;;15.35;8.88;;;12.00;88.20;;;;;;4122629;28;20141;-81
2024/03/22 08:54:07;;;;;;;14.73;8.95;;;12.10;88.10;;;;;;4120640;28;20473;-81
2024/03/22 08:56:09;;;;;;;17.63;9.43;;;12.10;88.50;;;;;;4121705;28;20098;-79
2024/03/22 08:58:10;;;;;;;16.73;9.20;;;12.20;87.10;;;;;;4122560;28;20054;-80
2024/03/22 09:00:13;;;;;;;14.63;8.82;;;12.30;86.80;;;;;;4122287;28;20070;-79
2024/03/22 09:02:16;;;;;;;15.00;9.60;;;12.30;86.70;;;;;;4121484;28;20492;-81
2024/03/22 09:04:17;;;;;;;16.15;9.25;;;12.40;86.90;;;;;;4124171;28;20058;-80
2024/03/22 09:06:19;;;;;;;14.88;9.02;;;12.40;86.90;;;;;;4124458;28;20403;-81
2024/03/22 09:08:21;;;;;;;15.85;8.65;;;12.50;87.10;;;;;;4123227;28;20110;-79
2024/03/22 09:10:23;;;;;;;12.63;8.52;;;12.60;86.30;;;;;;4123774;28;20042;-79
2024/03/22 09:12:24;;;;;;;14.88;8.70;;;12.60;86.10;;;;;;4124331;28;20481;-82
2024/03/22 09:14:26;;;;;;;14.88;8.20;;;12.70;85.70;;;;;;4122410;28;20070;-79
2024/03/22 09:16:28;;;;;;;13.70;8.48;;;12.80;85.60;;;;;;4122898;28;20059;-79
2024/03/22 09:18:31;;;;;;;14.50;8.30;;;12.90;85.10;;;;;;4126396;28;20054;-79
2024/03/22 09:20:32;;;;;;;14.70;8.45;;;13.00;84.20;;;;;;4126437;28;20055;-80
2024/03/22 09:22:33;;;;;;;14.93;8.32;;;13.00;84.60;;;;;;4124172;28;20059;-82
2024/03/22 09:24:34;;;;;;;12.85;8.07;;;13.10;83.50;;;;;;4124109;28;20046;-81
2024/03/22 09:26:37;;;;;;;13.85;8.18;;;13.20;83.40;;;;;;4123649;28;20090;-78
2024/03/22 09:28:38;;;;;;;13.45;7.88;;;13.30;83.60;;;;;;4124323;28;20047;-81
2024/03/22 09:30:39;;;;;;;13.75;8.00;;;13.30;82.80;;;;;;4122368;28;20108;-82
2024/03/22 09:32:42;;;;;;;14.13;7.60;;;13.40;82.30;;;;;;4121770;28;20078;-81
2024/03/22 09:34:45;;;;;;;14.93;7.90;;;13.50;81.70;;;;;;4124297;28;20059;-80
2024/03/22 09:36:46;;;;;;;12.32;7.85;;;13.50;81.90;;;;;;4123961;28;20074;-80
2024/03/22 09:38:48;;;;;;;13.23;7.78;;;13.60;80.40;;;;;;4104049;29;20120;-83
2024/03/22 09:40:54;;;;;;;11.68;7.57;;;13.70;80.50;;;;;;4122368;28;20078;-81
2024/03/22 09:43:03;;;;;;;13.20;7.47;;;13.70;80.00;;;;;;4125267;28;20046;-80
2024/03/22 09:45:08;;;;;;;12.65;7.82;;;13.80;79.80;;;;;;4105375;28;20051;-79
2024/03/22 09:47:14;;;;;;;13.23;8.50;;;13.90;79.60;;;;;;4123445;28;20077;-82
2024/03/22 09:49:16;;;;;;;12.25;7.45;;;13.90;79.20;;;;;;4123409;28;20448;-79
2024/03/22 09:51:19;;;;;;;12.65;7.85;;;14.00;78.50;;;;;;4119803;28;20055;-82
2024/03/22 09:53:21;;;;;;;13.05;7.35;;;14.10;78.80;;;;;;4121251;28;20122;-80
2024/03/22 09:55:24;;;;;;;11.57;6.95;;;14.20;78.90;;;;;;4121773;28;20055;-79
2024/03/22 09:57:27;;;;;;;14.10;7.53;;;14.30;78.50;;;;;;4120786;28;20456;-83
2024/03/22 09:59:29;;;;;;;11.70;7.05;;;14.50;78.20;;;;;;4125025;28;20115;-84
2024/03/22 10:01:31;;;;;;;13.27;7.03;;;14.60;76.80;;;;;;4123720;28;20061;-81
2024/03/22 10:03:33;;;;;;;13.65;6.97;;;14.70;76.40;;;;;;4119631;28;20050;-83
2024/03/22 10:05:36;;;;;;;12.55;6.97;;;14.70;74.70;;;;;;4119813;28;20065;-81
2024/03/22 10:07:41;;;;;;;12.05;6.97;;;14.70;72.00;;;;;;4121016;28;20054;-80
2024/03/22 10:09:43;;;;;;;9.70;6.03;;;14.80;72.60;;;;;;4120826;28;20047;-84
2024/03/22 10:11:45;;;;;;;10.25;6.15;;;14.80;72.00;;;;;;4102146;29;20460;-81
2024/03/22 10:13:51;;;;;;;11.82;6.65;;;14.90;69.90;;;;;;4127664;28;20046;-80
2024/03/22 10:15:55;;;;;;;12.48;6.10;;;14.90;69.60;;;;;;4136335;28;20086;-84
2024/03/22 10:17:57;;;;;;;12.82;6.60;;;15.00;69.20;;;;;;4138081;28;20407;-80
2024/03/22 10:19:59;;;;;;;10.07;5.53;;;15.10;69.20;;;;;;4135527;28;20057;-80
2024/03/22 10:22:04;;;;;;;10.07;4.82;;;15.20;69.30;;;;;;4139798;28;20058;-82
2024/03/22 10:24:07;;;;;;;7.53;4.63;;;15.30;66.50;;;;;;4134751;28;20051;-80
2024/03/22 10:26:09;;;;;;;8.75;4.95;;;15.40;64.90;;;;;;4133961;28;20046;-78
2024/03/22 10:28:11;;;;;;;9.18;4.80;;;15.50;60.30;;;;;;4134540;28;20141;-80
2024/03/22 10:30:16;;;;;;;9.65;4.57;;;15.50;60.50;;;;;;4130352;28;20046;-84
2024/03/22 10:32:18;;;;;;;7.78;4.50;;;15.50;59.80;;;;;;4118667;28;20054;-78
2024/03/22 10:34:21;;;;;;;8.63;4.70;;;15.60;60.40;;;;;;4119859;28;20062;-80
2024/03/22 10:36:24;;;;;;;8.85;4.85;;;15.60;58.70;;;;;;4119516;28;20081;-81
2024/03/22 10:38:27;;;;;;;10.00;4.28;;;15.60;59.20;;;;;;4119083;28;20051;-80
2024/03/22 10:40:30;;;;;;;9.02;3.95;;;15.80;59.60;;;;;;4120488;28;20475;-79
2024/03/22 10:42:31;;;;;;;7.10;3.90;;;15.90;58.70;;;;;;4119162;28;20054;-78
2024/03/22 10:44:33;;;;;;;8.10;4.20;;;15.90;58.90;;;;;;4115449;28;20061;-77
2024/03/22 10:46:35;;;;;;;6.97;3.78;;;16.10;58.70;;;;;;4120486;28;20061;-81
2024/03/22 10:48:38;;;;;;;7.95;4.47;;;16.10;57.90;;;;;;4119797;28;20055;-77
2024/03/22 10:50:40;;;;;;;7.90;3.75;;;16.20;57.00;;;;;;4117856;28;20051;-80
2024/03/22 10:52:49;;;;;;;8.60;4.18;;;16.20;56.90;;;;;;4118823;28;20540;-79
2024/03/22 10:54:52;;;;;;;8.88;4.45;;;16.20;57.20;;;;;;4115391;28;20139;-79
2024/03/22 10:56:55;;;;;;;10.30;4.78;;;16.30;57.90;;;;;;4114972;28;20142;-78
2024/03/22 10:58:56;;;;;;;9.90;4.78;;;16.40;58.30;;;;;;4117632;28;20051;-78
2024/03/22 11:00:58;;;;;;;6.93;4.50;;;16.30;56.90;;;;;;4116699;28;20058;-78
2024/03/22 11:02:59;;;;;;;8.48;4.20;;;16.40;57.30;;;;;;4115973;28;20404;-80
2024/03/22 11:05:01;;;;;;;8.30;4.13;;;16.40;57.90;;;;;;4114140;28;20105;-79
2024/03/22 11:07:03;;;;;;;6.10;3.78;;;16.60;57.60;;;;;;4115397;28;20058;-78
2024/03/22 11:09:06;;;;;;;9.07;4.25;;;16.70;57.50;;;;;;4115311;28;20489;-78
2024/03/22 11:11:11;;;;;;;9.10;4.68;;;16.80;57.10;;;;;;4117729;28;20138;-76
2024/03/22 11:13:13;;;;;;;10.40;4.97;;;16.70;56.90;;;;;;4116102;28;20058;-80
2024/03/22 11:15:14;;;;;;;8.15;4.20;;;16.80;57.70;;;;;;4114269;28;20047;-78
2024/03/22 11:17:16;;;;;;;6.78;3.55;;;16.90;56.20;;;;;;4114831;28;20085;-78
2024/03/22 11:19:17;;;;;;;8.65;4.00;;;17.00;56.60;;;;;;4114843;28;20113;-79
2024/03/22 11:21:19;;;;;;;7.63;4.05;;;17.00;55.30;;;;;;4114415;28;20477;-77
2024/03/22 11:23:20;;;;;;;7.38;4.20;;;17.00;55.30;;;;;;4114759;28;20051;-79
2024/03/22 11:25:23;;;;;;;9.18;4.82;;;16.90;55.20;;;;;;4114066;28;20053;-78
2024/03/22 11:27:26;;;;;;;9.30;4.20;;;17.00;54.40;;;;;;4115378;28;20070;-78
2024/03/22 11:29:28;;;;;;;7.78;4.35;;;17.10;54.80;;;;;;4116862;28;20061;-79
2024/03/22 11:31:29;;;;;;;9.73;3.97;;;17.10;54.50;;;;;;4114726;28;20059;-79
2024/03/22 11:33:31;;;;;;;6.22;3.63;;;17.00;53.70;;;;;;4114333;28;20049;-78
2024/03/22 11:35:34;;;;;;;8.77;4.00;;;17.10;53.50;;;;;;4112621;28;20097;-81
2024/03/22 11:37:36;;;;;;;7.78;3.75;;;17.20;53.30;;;;;;4114193;28;20047;-79
2024/03/22 11:39:36;;;;;;;8.77;4.10;;;17.10;52.10;;;;;;4114898;28;20086;-79
2024/03/22 11:41:39;;;;;;;6.22;3.25;;;17.10;52.20;;;;;;4117224;28;20448;-80
2024/03/22 11:43:41;;;;;;;5.65;3.25;;;17.30;52.30;;;;;;4118743;28;20814;-79
2024/03/22 11:45:44;;;;;;;6.88;3.38;;;17.50;51.90;;;;;;4117960;28;20122;-79
2024/03/22 11:47:47;;;;;;;8.32;3.90;;;17.50;51.20;;;;;;4117950;28;20455;-79
2024/03/22 11:49:49;;;;;;;6.50;3.17;;;17.60;52.00;;;;;;4121398;28;20062;-78
2024/03/22 11:51:52;;;;;;;8.70;3.75;;;17.70;52.40;;;;;;4119191;28;20070;-77
2024/03/22 11:53:56;;;;;;;7.60;4.03;;;17.80;52.00;;;;;;4116810;28;20059;-86
2024/03/22 11:55:57;;;;;;;8.13;4.40;;;17.80;53.00;;;;;;4116436;28;20051;-81
2024/03/22 11:57:59;;;;;;;8.60;4.18;;;17.80;53.00;;;;;;4109552;28;20051;-83
2024/03/22 12:00:05;;;;;;;8.57;4.13;;;17.80;53.10;;;;;;4115853;28;20620;-80
2024/03/22 12:02:11;;;;;;;7.10;4.20;;;17.90;52.90;;;;;;4090631;28;20082;-82
2024/03/22 12:04:15;;;;;;;7.60;3.88;;;18.00;52.80;;;;;;4114960;28;20374;-81
2024/03/22 12:06:17;;;;;;;7.00;4.15;;;18.20;52.50;;;;;;4115508;28;20459;-84
2024/03/22 12:08:18;;;;;;;7.85;4.20;;;18.20;51.60;;;;;;4100196;28;20059;-83
2024/03/22 12:10:20;;;;;;;7.32;3.85;;;18.20;51.50;;;;;;4118275;28;20046;-85
2024/03/22 12:12:22;;;;;;;6.80;4.00;;;18.30;51.90;;;;;;4118679;28;20057;-83
2024/03/22 12:14:24;;;;;;;9.40;5.05;;;18.40;51.00;;;;;;4118749;28;20158;-84
2024/03/22 12:16:26;;;;;;;8.20;4.43;;;18.40;51.10;;;;;;4118976;28;20473;-83
2024/03/22 12:18:28;;;;;;;7.97;4.03;;;18.50;51.00;;;;;;4118432;28;20105;-82
2024/03/22 12:20:29;;;;;;;10.60;4.20;;;18.50;50.90;;;;;;4100756;29;20051;-83
2024/03/22 12:22:31;;;;;;;7.10;3.78;;;18.60;50.60;;;;;;4120275;28;20051;-80
2024/03/22 12:24:32;;;;;;;9.07;4.10;;;18.60;50.80;;;;;;4117689;28;20051;-83
2024/03/22 12:26:34;;;;;;;8.77;4.00;;;18.80;49.60;;;;;;4117996;28;20333;-81
2024/03/22 12:28:35;;;;;;;6.32;3.75;;;18.90;49.60;;;;;;4120092;28;20054;-81
2024/03/22 12:30:37;;;;;;;6.80;3.70;;;19.00;49.80;;;;;;4118648;28;20047;-82
2024/03/22 12:32:40;;;;;;;8.32;4.07;;;19.20;49.30;;;;;;4120616;28;20114;-81
2024/03/22 12:34:42;;;;;;;7.88;3.78;;;19.30;48.10;;;;;;4119700;28;20050;-82
2024/03/22 12:36:43;;;;;;;6.60;3.40;;;19.20;48.50;;;;;;4119588;28;20464;-80
2024/03/22 12:38:45;;;;;;;7.65;3.80;;;19.30;48.60;;;;;;4120488;28;20051;-80
2024/03/22 12:40:46;;;;;;;7.15;3.65;;;19.40;48.50;;;;;;4117083;28;20055;-80
2024/03/22 12:42:48;;;;;;;7.40;3.50;;;19.60;46.90;;;;;;4117324;28;20150;-82
2024/03/22 12:44:49;;;;;;;7.07;3.03;;;19.80;46.20;;;;;;4116644;28;20114;-81
2024/03/22 12:46:51;;;;;;;6.93;3.15;;;20.10;45.10;;;;;;4117347;28;20054;-82
2024/03/22 12:48:54;;;;;;;6.28;3.10;;;20.10;44.40;;;;;;4117291;28;20043;-82
2024/03/22 12:50:55;;;;;;;5.55;3.00;;;20.20;44.10;;;;;;4117470;28;20769;-79
2024/03/22 12:52:57;;;;;;;7.10;3.00;;;20.50;44.30;;;;;;4116552;28;20073;-81
2024/03/22 12:54:58;;;;;;;8.68;3.42;;;20.60;44.00;;;;;;4116285;28;20429;-80
2024/03/22 12:57:00;;;;;;;7.05;3.30;;;20.60;43.10;;;;;;4118001;28;20109;-82
2024/03/22 12:59:01;;;;;;;7.13;3.20;;;20.60;42.70;;;;;;4117240;28;20790;-80
2024/03/22 13:01:03;;;;;;;7.00;3.40;;;20.60;42.50;;;;;;4116006;28;20066;-81
2024/03/22 13:03:06;;;;;;;6.85;3.42;;;20.70;42.70;;;;;;4116050;28;20082;-81
2024/03/22 13:05:09;;;;;;;6.15;3.40;;;20.80;42.70;;;;;;4116187;28;20057;-80
2024/03/22 13:07:11;;;;;;;6.38;3.05;;;21.00;42.30;;;;;;4118509;28;20042;-83
2024/03/22 13:09:12;;;;;;;7.15;3.10;;;21.20;41.70;;;;;;4117429;28;20047;-78
2024/03/22 13:11:14;;;;;;;5.45;2.75;;;21.50;41.90;;;;;;4116591;28;20078;-81
2024/03/22 13:13:16;;;;;;;6.20;3.13;;;21.50;41.10;;;;;;4116635;28;20114;-82
2024/03/22 13:15:19;;;;;;;6.45;3.08;;;21.60;40.50;;;;;;4118424;28;20055;-81
2024/03/22 13:17:20;;;;;;;5.00;2.65;;;21.80;40.20;;;;;;4123152;28;20773;-80
2024/03/22 13:19:22;;;;;;;7.82;3.00;;;21.80;40.40;;;;;;4124039;28;20101;-79
2024/03/22 13:21:25;;;;;;;6.57;2.67;;;21.90;41.20;;;;;;4118779;28;20065;-80
2024/03/22 13:23:27;;;;;;;5.28;2.80;;;21.80;38.80;;;;;;4118339;28;20051;-81
2024/03/22 13:25:28;;;;;;;7.50;3.20;;;21.80;38.80;;;;;;4116140;28;20057;-82
2024/03/22 13:27:30;;;;;;;5.53;2.85;;;21.70;39.30;;;;;;4116340;28;20050;-82
2024/03/22 13:29:31;;;;;;;6.85;2.85;;;21.80;39.10;;;;;;4118512;28;20043;-87
2024/03/22 13:31:33;;;;;;;5.25;2.72;;;21.70;39.00;;;;;;4120134;28;20121;-86
2024/03/22 13:33:35;;;;;;;5.88;2.78;;;21.80;39.50;;;;;;4113607;28;20548;-80
2024/03/22 13:35:36;;;;;;;5.22;2.97;;;21.80;39.30;;;;;;4118487;28;20070;-87
2024/03/22 13:37:39;;;;;;;6.50;2.65;;;21.70;39.80;;;;;;4121026;28;20058;-80
2024/03/22 13:39:40;;;;;;;5.57;2.80;;;22.00;39.90;;;;;;4117995;28;20118;-84
2024/03/22 13:41:41;;;;;;;4.90;2.67;;;22.00;40.00;;;;;;4116955;28;21102;-82
2024/03/22 13:43:44;;;;;;;6.80;2.65;;;22.30;38.20;;;;;;4116332;28;20051;-82
2024/03/22 13:45:47;;;;;;;4.03;2.00;;;22.30;37.60;;;;;;4114951;28;20055;-84
2024/03/22 13:47:48;;;;;;;5.65;2.10;;;22.40;37.60;;;;;;4116350;28;20113;-82
2024/03/22 13:49:50;;;;;;;4.57;2.15;;;22.80;38.00;;;;;;4116415;28;20054;-83
2024/03/22 13:51:51;;;;;;;5.03;1.90;;;23.20;36.70;;;;;;4117367;28;20057;-82
2024/03/22 13:53:55;;;;;;;4.05;1.88;;;23.20;35.50;;;;;;4121872;28;20563;-84
2024/03/22 13:55:56;;;;;;;4.32;2.15;;;23.60;34.70;;;;;;4125121;28;20154;-82
2024/03/22 13:57:58;;;;;;;6.32;2.17;;;23.70;33.00;;;;;;4119103;28;20415;-80
2024/03/22 13:59:59;;;;;;;5.20;2.10;;;23.70;33.40;;;;;;4116962;28;20488;-81
2024/03/22 14:02:03;;;;;;;5.50;2.03;;;23.90;33.40;;;;;;4115578;28;20105;-81
2024/03/22 14:04:05;;;;;;;4.60;1.90;;;24.20;32.00;;;;;;4117691;28;20074;-78
2024/03/22 14:06:07;;;;;;;6.47;3.40;;;25.50;32.10;;;;;;4120714;28;20511;-79
2024/03/22 14:08:09;;;;;;;5.63;2.42;;;28.60;28.70;;;;;;4121114;28;20047;-79
2024/03/22 14:10:15;;;;;;;4.22;2.13;;;31.90;25.60;;;;;;4120196;28;20047;-76
2024/03/22 14:12:16;;;;;;;5.85;2.20;;;33.50;23.30;;;;;;4120212;28;20670;-79
2024/03/22 14:14:19;;;;;;;4.55;2.20;;;36.40;22.10;;;;;;4119417;28;20058;-76
2024/03/22 14:16:23;;;;;;;5.05;2.05;;;37.30;21.30;;;;;;4119623;28;20058;-80
2024/03/22 14:18:25;;;;;;;5.28;2.35;;;38.30;20.30;;;;;;4106194;28;20070;-80
2024/03/22 14:20:27;;;;;;;6.35;2.20;;;37.90;20.20;;;;;;4106429;29;20132;-79
2024/03/22 14:22:30;;;;;;;4.13;1.90;;;37.40;19.40;;;;;;4108577;29;20047;-77
2024/03/22 14:24:31;;;;;;;5.20;2.45;;;36.80;20.40;;;;;;4116272;28;20050;-79
2024/03/22 14:26:34;;;;;;;4.82;2.17;;;37.90;19.00;;;;;;4119750;28;20420;-80
2024/03/22 14:28:36;;;;;;;4.03;2.30;;;38.10;18.60;;;;;;4118379;28;20094;-81
2024/03/22 14:30:39;;;;;;;4.18;2.00;;;39.70;18.60;;;;;;4114288;28;20051;-82
2024/03/22 14:32:41;;;;;;;4.05;1.70;;;39.30;18.20;;;;;;4116218;28;20507;-79
2024/03/22 14:34:44;;;;;;;4.65;1.80;;;35.90;18.50;;;;;;4126691;28;20074;-81
2024/03/22 14:36:45;;;;;;;5.18;2.13;;;35.10;18.80;;;;;;4123079;28;20790;-82
2024/03/22 14:38:47;;;;;;;4.13;1.90;;;33.80;19.20;;;;;;4119110;28;20117;-82
2024/03/22 14:40:49;;;;;;;4.97;2.33;;;33.40;19.90;;;;;;4125982;28;20050;-80
2024/03/22 14:42:53;;;;;;;4.85;2.00;;;35.30;19.80;;;;;;4123109;28;20069;-81
2024/03/22 14:44:56;;;;;;;3.53;1.70;;;33.60;20.80;;;;;;4109585;28;20082;-82
2024/03/22 14:46:58;;;;;;;5.88;1.77;;;32.70;21.50;;;;;;4128240;28;20119;-80
2024/03/22 14:49:00;;;;;;;3.70;1.73;;;32.00;21.70;;;;;;4121764;28;20112;-82
2024/03/22 14:51:04;;;;;;;4.97;1.92;;;30.30;22.50;;;;;;4118600;28;20042;-81
2024/03/22 14:53:06;;;;;;;4.40;2.00;;;29.50;23.50;;;;;;4133149;28;20054;-80
2024/03/22 14:55:09;;;;;;;4.53;2.00;;;28.70;24.70;;;;;;4118487;28;20101;-81
2024/03/22 14:57:10;;;;;;;5.78;2.00;;;27.50;25.70;;;;;;4125806;28;20070;-80
2024/03/22 14:59:14;;;;;;;3.90;1.75;;;27.40;26.00;;;;;;4103917;29;20134;-80
2024/03/22 15:01:15;;;;;;;5.97;1.90;;;26.60;26.20;;;;;;4116764;28;20068;-78
2024/03/22 15:03:16;;;;;;;3.95;1.60;;;26.00;27.30;;;;;;4114852;28;20059;-78
2024/03/22 15:05:19;;;;;;;4.13;1.85;;;25.50;28.70;;;;;;4112326;28;20055;-77
2024/03/22 15:07:22;;;;;;;5.03;2.85;;;25.90;28.20;;;;;;4118571;28;20486;-79
2024/03/22 15:09:24;;;;;;;4.15;2.53;;;27.60;27.70;;;;;;4120866;28;20575;-78
2024/03/22 15:11:26;;;;;;;5.55;2.08;;;29.80;25.20;;;;;;4123449;28;20092;-80
2024/03/22 15:13:29;;;;;;;2.90;1.83;;;30.10;23.90;;;;;;4112759;28;20090;-80
2024/03/22 15:15:32;;;;;;;3.55;1.85;;;31.30;23.30;;;;;;4122928;28;20058;-80
2024/03/22 15:17:34;;;;;;;3.70;1.50;;;32.50;22.80;;;;;;4121885;28;20051;-80
2024/03/22 15:19:36;;;;;;;4.07;1.52;;;30.70;22.00;;;;;;4123092;28;20059;-83
2024/03/22 15:21:38;;;;;;;3.85;1.65;;;28.30;23.80;;;;;;4117834;28;20047;-82
2024/03/22 15:23:40;;;;;;;4.65;1.60;;;27.70;24.80;;;;;;4118725;28;20081;-81
2024/03/22 15:25:43;;;;;;;4.70;1.40;;;27.10;24.60;;;;;;4115346;28;20047;-80
2024/03/22 15:27:44;;;;;;;2.92;1.35;;;27.10;25.40;;;;;;4118459;28;20185;-81
2024/03/22 15:29:46;;;;;;;3.22;1.40;;;27.70;24.80;;;;;;4118345;28;20054;-82
2024/03/22 15:31:54;;;;;;;4.20;1.40;;;26.90;25.60;;;;;;4108353;29;20107;-82
2024/03/22 15:33:56;;;;;;;5.32;4.32;;;26.60;25.80;;;;;;4122654;28;20078;-80
2024/03/22 15:35:58;;;;;;;3.17;1.60;;;26.70;25.20;;;;;;4125836;28;20062;-81
2024/03/22 15:38:03;;;;;;;4.45;1.40;;;26.70;26.10;;;;;;4116275;28;20520;-80
2024/03/22 15:40:13;;;;;;;5.60;1.95;;;27.70;25.40;;;;;;4131502;28;20054;-79
2024/03/22 15:42:16;;;;;;;5.65;2.40;;;28.30;26.90;;;;;;4121434;28;20242;-82
2024/03/22 15:44:35;;;;;;;5.32;2.80;;;27.90;28.30;;;;;;4136331;28;20051;-82
2024/03/22 15:46:54;;;;;;;7.20;3.03;;;27.10;29.80;;;;;;4130718;28;20081;-86
2024/03/22 15:49:49;;;;;;;8.20;3.00;;;26.50;30.80;;;;;;4104092;29;20060;-83
2024/03/22 15:52:12;;;;;;;7.85;3.08;;;25.60;33.10;;;;;;4128558;28;20480;-82
2024/03/22 15:54:17;;;;;;;8.05;2.83;;;24.90;35.00;;;;;;4115743;28;20075;-82
2024/03/22 15:56:21;;;;;;;11.10;2.58;;;24.50;34.80;;;;;;4131003;28;20055;-81
2024/03/22 15:58:26;;;;;;;6.88;3.00;;;24.50;34.90;;;;;;4111774;28;20086;-82
2024/03/22 16:00:28;;;;;;;6.03;2.58;;;24.20;34.30;;;;;;4122382;28;20090;-83
2024/03/22 16:02:30;;;;;;;6.85;2.95;;;24.50;34.40;;;;;;4121888;28;20062;-81
2024/03/22 16:04:33;;;;;;;5.93;2.40;;;24.30;33.60;;;;;;4131017;28;20138;-82
2024/03/22 16:06:38;;;;;;;5.53;2.42;;;24.20;34.50;;;;;;4129527;28;20050;-81
2024/03/22 16:08:42;;;;;;;7.30;2.60;;;24.30;34.50;;;;;;4130560;28;20100;-81
2024/03/22 16:10:48;;;;;;;5.40;2.40;;;24.10;34.20;;;;;;4109415;29;20078;-82
2024/03/22 16:12:51;;;;;;;6.10;2.50;;;23.80;34.80;;;;;;4120402;28;20109;-81
2024/03/22 16:14:56;;;;;;;6.13;2.40;;;23.30;35.40;;;;;;4107267;29;20103;-79
2024/03/22 16:16:58;;;;;;;6.18;2.35;;;23.10;35.80;;;;;;4125093;28;20051;-79
2024/03/22 16:19:01;;;;;;;6.07;1.95;;;23.00;36.40;;;;;;4125945;28;20059;-78
2024/03/22 16:21:04;;;;;;;6.43;2.25;;;22.30;36.20;;;;;;4120612;28;20050;-80
2024/03/22 16:23:08;;;;;;;7.68;2.20;;;21.80;37.80;;;;;;4111806;29;20078;-80
2024/03/22 16:25:11;;;;;;;4.85;2.25;;;21.70;38.20;;;;;;4126247;28;20051;-79
2024/03/22 16:27:13;;;;;;;5.63;2.35;;;21.50;38.20;;;;;;4125707;28;20057;-81
2024/03/22 16:29:14;;;;;;;6.15;2.20;;;21.50;38.60;;;;;;4098238;29;20120;-78
2024/03/22 16:31:16;;;;;;;5.38;2.15;;;21.50;38.60;;;;;;4122025;28;20043;-79
2024/03/22 16:33:18;;;;;;;6.55;2.30;;;21.40;37.80;;;;;;4117720;28;20051;-80
2024/03/22 16:35:20;;;;;;;4.78;2.30;;;21.20;37.80;;;;;;4109239;28;20062;-81